Terminal Aerodrome Forecast
Issued by NWS

Home | Current Version | Previous Version | Graphics & Text | Print | Product List | Glossary On
Versions: 1 2 3 4 5 6 7 8 9 10 11 12 13 14 15 16 17 18 19 20 21 22 23
665
FTUS43 KBIS 211455 AAA
TAFDIK
TAF AMD
KDIK 211455Z 2115/2212 30014KT P6SM FEW015
      TEMPO 2115/2117 BKN015
     FM211700 31011KT P6SM FEW300
     FM212000 28009KT P6SM FEW250
     FM220000 22006KT P6SM SCT250
     FM220400 17008KT P6SM BKN250
     FM220800 19010KT P6SM SCT250=

USA.gov is the U.S. government's official web portal to all federal, state and local government web resources and services.